sensor_id;sensor_type;location;lat;lon;timestamp;pressure;altitude;pressure_sealevel;temperature;humidity
11268;BME280;49397;47.474;9.416;2023-02-18T00:02:11;96567.75;;;10.08;76.92
11268;BME280;49397;47.474;9.416;2023-02-18T00:04:37;96571.78;;;10.06;76.85
11268;BME280;49397;47.474;9.416;2023-02-18T00:07:02;96564.50;;;10.01;77.26
11268;BME280;49397;47.474;9.416;2023-02-18T00:09:28;96572.66;;;9.96;77.12
11268;BME280;49397;47.474;9.416;2023-02-18T00:11:53;96563.19;;;9.94;78.07
11268;BME280;49397;47.474;9.416;2023-02-18T00:14:19;96570.25;;;9.90;78.18
11268;BME280;49397;47.474;9.416;2023-02-18T00:16:44;96569.09;;;10.01;78.14
11268;BME280;49397;47.474;9.416;2023-02-18T00:19:13;96573.19;;;9.98;78.51
11268;BME280;49397;47.474;9.416;2023-02-18T00:21:39;96580.22;;;9.99;78.74
11268;BME280;49397;47.474;9.416;2023-02-18T00:24:05;96572.09;;;9.94;78.06
11268;BME280;49397;47.474;9.416;2023-02-18T00:26:31;96578.66;;;9.88;78.38
11268;BME280;49397;47.474;9.416;2023-02-18T00:28:57;96577.59;;;9.84;78.88
11268;BME280;49397;47.474;9.416;2023-02-18T00:31:28;96581.91;;;9.90;78.93
11268;BME280;49397;47.474;9.416;2023-02-18T00:33:56;96581.03;;;10.00;78.21
11268;BME280;49397;47.474;9.416;2023-02-18T00:36:22;96573.91;;;10.24;77.36
11268;BME280;49397;47.474;9.416;2023-02-18T00:38:49;96565.66;;;10.34;77.32
11268;BME280;49397;47.474;9.416;2023-02-18T00:41:15;96562.44;;;10.32;76.95
11268;BME280;49397;47.474;9.416;2023-02-18T00:43:41;96554.91;;;10.24;77.12
11268;BME280;49397;47.474;9.416;2023-02-18T00:46:07;96556.25;;;10.21;77.50
11268;BME280;49397;47.474;9.416;2023-02-18T00:48:33;96558.50;;;10.14;78.18
11268;BME280;49397;47.474;9.416;2023-02-18T00:51:00;96551.72;;;10.12;78.78
11268;BME280;49397;47.474;9.416;2023-02-18T00:53:27;96549.44;;;10.29;78.66
11268;BME280;49397;47.474;9.416;2023-02-18T00:55:52;96555.66;;;10.29;79.02
11268;BME280;49397;47.474;9.416;2023-02-18T00:58:18;96551.22;;;10.43;78.87
11268;BME280;49397;47.474;9.416;2023-02-18T01:00:44;96549.91;;;10.41;79.52
11268;BME280;49397;47.474;9.416;2023-02-18T01:03:09;96556.94;;;10.42;79.67
11268;BME280;49397;47.474;9.416;2023-02-18T01:05:36;96549.09;;;10.40;80.09
11268;BME280;49397;47.474;9.416;2023-02-18T01:08:02;96554.50;;;10.40;80.17
11268;BME280;49397;47.474;9.416;2023-02-18T01:10:28;96555.31;;;10.41;80.11
11268;BME280;49397;47.474;9.416;2023-02-18T01:12:54;96555.28;;;10.46;80.35
11268;BME280;49397;47.474;9.416;2023-02-18T01:15:20;96550.72;;;10.41;80.00
11268;BME280;49397;47.474;9.416;2023-02-18T01:17:45;96555.81;;;10.48;79.94
11268;BME280;49397;47.474;9.416;2023-02-18T01:20:12;96549.28;;;10.54;79.08
11268;BME280;49397;47.474;9.416;2023-02-18T01:22:38;96546.31;;;10.50;78.96
11268;BME280;49397;47.474;9.416;2023-02-18T01:25:04;96546.56;;;10.54;79.08
11268;BME280;49397;47.474;9.416;2023-02-18T01:27:30;96530.28;;;10.54;78.83
11268;BME280;49397;47.474;9.416;2023-02-18T01:29:55;96528.66;;;10.48;79.24
11268;BME280;49397;47.474;9.416;2023-02-18T01:32:21;96520.28;;;10.49;78.82
11268;BME280;49397;47.474;9.416;2023-02-18T01:34:47;96525.16;;;10.47;78.96
11268;BME280;49397;47.474;9.416;2023-02-18T01:37:13;96505.19;;;10.38;79.11
11268;BME280;49397;47.474;9.416;2023-02-18T01:39:38;96522.09;;;10.59;78.86
11268;BME280;49397;47.474;9.416;2023-02-18T01:42:05;96514.03;;;10.49;79.16
11268;BME280;49397;47.474;9.416;2023-02-18T01:44:32;96509.56;;;10.63;78.81
11268;BME280;49397;47.474;9.416;2023-02-18T01:46:58;96517.72;;;10.63;78.79
11268;BME280;49397;47.474;9.416;2023-02-18T01:49:32;96522.31;;;10.62;78.61
11268;BME280;49397;47.474;9.416;2023-02-18T01:52:02;96520.28;;;10.49;79.29
11268;BME280;49397;47.474;9.416;2023-02-18T01:54:31;96527.66;;;10.39;79.57
11268;BME280;49397;47.474;9.416;2023-02-18T01:57:03;96526.38;;;10.31;79.65
11268;BME280;49397;47.474;9.416;2023-02-18T01:59:32;96530.66;;;10.37;79.61
11268;BME280;49397;47.474;9.416;2023-02-18T02:01:59;96520.38;;;10.34;79.56
11268;BME280;49397;47.474;9.416;2023-02-18T02:04:25;96523.66;;;10.31;80.08
11268;BME280;49397;47.474;9.416;2023-02-18T02:06:50;96521.78;;;10.27;80.02
11268;BME280;49397;47.474;9.416;2023-02-18T02:09:19;96523.66;;;10.31;79.79
11268;BME280;49397;47.474;9.416;2023-02-18T02:14:50;96513.94;;;10.25;80.40
11268;BME280;49397;47.474;9.416;2023-02-18T02:23:21;96510.72;;;10.18;80.89
11268;BME280;49397;47.474;9.416;2023-02-18T02:40:19;96503.41;;;10.19;81.34
11268;BME280;49397;47.474;9.416;2023-02-18T02:43:06;96504.69;;;10.26;81.11
11268;BME280;49397;47.474;9.416;2023-02-18T02:45:44;96503.34;;;10.29;80.89
11268;BME280;49397;47.474;9.416;2023-02-18T02:53:29;96483.72;;;10.37;80.21
11268;BME280;49397;47.474;9.416;2023-02-18T02:55:55;96475.03;;;10.40;80.19
11268;BME280;49397;47.474;9.416;2023-02-18T02:58:21;96476.13;;;10.39;79.98
11268;BME280;49397;47.474;9.416;2023-02-18T03:06:36;96471.59;;;10.29;80.25
11268;BME280;49397;47.474;9.416;2023-02-18T03:15:40;96463.13;;;10.36;80.32
11268;BME280;49397;47.474;9.416;2023-02-18T03:20:56;96455.28;;;10.34;80.84
11268;BME280;49397;47.474;9.416;2023-02-18T03:23:28;96448.56;;;10.27;80.43
11268;BME280;49397;47.474;9.416;2023-02-18T03:25:57;96453.63;;;10.38;80.52
11268;BME280;49397;47.474;9.416;2023-02-18T03:28:25;96459.81;;;10.44;80.22
11268;BME280;49397;47.474;9.416;2023-02-18T03:30:56;96453.53;;;10.48;80.20
11268;BME280;49397;47.474;9.416;2023-02-18T03:33:30;96452.50;;;10.44;80.38
11268;BME280;49397;47.474;9.416;2023-02-18T03:35:58;96452.53;;;10.39;81.23
11268;BME280;49397;47.474;9.416;2023-02-18T03:38:29;96454.41;;;10.39;80.90
11268;BME280;49397;47.474;9.416;2023-02-18T03:40:56;96449.56;;;10.36;80.47
11268;BME280;49397;47.474;9.416;2023-02-18T03:43:22;96452.53;;;10.39;81.35
11268;BME280;49397;47.474;9.416;2023-02-18T03:45:48;96460.16;;;10.32;80.53
11268;BME280;49397;47.474;9.416;2023-02-18T03:48:13;96457.16;;;10.34;80.62
11268;BME280;49397;47.474;9.416;2023-02-18T03:50:39;96455.84;;;10.31;81.12
11268;BME280;49397;47.474;9.416;2023-02-18T03:53:04;96449.63;;;10.26;81.72
11268;BME280;49397;47.474;9.416;2023-02-18T03:55:30;96456.16;;;10.25;81.63
11268;BME280;49397;47.474;9.416;2023-02-18T03:57:55;96451.00;;;10.28;81.32
11268;BME280;49397;47.474;9.416;2023-02-18T04:00:21;96450.72;;;10.30;81.43
11268;BME280;49397;47.474;9.416;2023-02-18T04:02:46;96447.97;;;10.35;80.88
11268;BME280;49397;47.474;9.416;2023-02-18T04:05:12;96451.41;;;10.40;80.62
11268;BME280;49397;47.474;9.416;2023-02-18T04:07:38;96460.91;;;10.43;80.62
11268;BME280;49397;47.474;9.416;2023-02-18T04:10:04;96452.56;;;10.34;81.24
11268;BME280;49397;47.474;9.416;2023-02-18T04:12:30;96450.13;;;10.33;80.91
11268;BME280;49397;47.474;9.416;2023-02-18T04:14:56;96456.38;;;10.33;81.04
11268;BME280;49397;47.474;9.416;2023-02-18T04:17:21;96454.47;;;10.34;80.87
11268;BME280;49397;47.474;9.416;2023-02-18T04:19:47;96457.66;;;10.41;80.47
11268;BME280;49397;47.474;9.416;2023-02-18T04:22:12;96460.06;;;10.47;80.46
11268;BME280;49397;47.474;9.416;2023-02-18T04:24:38;96458.78;;;10.40;80.84
11268;BME280;49397;47.474;9.416;2023-02-18T04:27:03;96459.59;;;10.35;80.73
11268;BME280;49397;47.474;9.416;2023-02-18T04:29:29;96465.41;;;10.24;81.87
11268;BME280;49397;47.474;9.416;2023-02-18T04:31:54;96461.13;;;10.18;82.43
11268;BME280;49397;47.474;9.416;2023-02-18T04:34:21;96464.34;;;10.20;82.33
11268;BME280;49397;47.474;9.416;2023-02-18T04:36:46;96476.03;;;10.15;82.26
11268;BME280;49397;47.474;9.416;2023-02-18T04:39:11;96477.44;;;10.13;82.69
11268;BME280;49397;47.474;9.416;2023-02-18T04:41:37;96472.84;;;10.03;82.74
11268;BME280;49397;47.474;9.416;2023-02-18T04:44:02;96479.34;;;10.02;82.82
11268;BME280;49397;47.474;9.416;2023-02-18T04:46:28;96479.63;;;10.01;83.43
11268;BME280;49397;47.474;9.416;2023-02-18T04:48:53;96471.78;;;9.99;83.53
11268;BME280;49397;47.474;9.416;2023-02-18T04:51:19;96466.09;;;9.96;83.37
11268;BME280;49397;47.474;9.416;2023-02-18T04:53:44;96463.69;;;9.94;83.16
11268;BME280;49397;47.474;9.416;2023-02-18T04:56:10;96458.81;;;9.91;83.12
11268;BME280;49397;47.474;9.416;2023-02-18T04:58:36;96451.78;;;9.90;83.06
11268;BME280;49397;47.474;9.416;2023-02-18T05:01:03;96442.06;;;9.89;83.73
11268;BME280;49397;47.474;9.416;2023-02-18T05:03:29;96442.09;;;9.84;84.26
11268;BME280;49397;47.474;9.416;2023-02-18T05:05:55;96441.81;;;9.81;84.26
11268;BME280;49397;47.474;9.416;2023-02-18T05:08:20;96444.00;;;9.79;84.07
11268;BME280;49397;47.474;9.416;2023-02-18T05:10:46;96430.44;;;9.79;83.88
11268;BME280;49397;47.474;9.416;2023-02-18T05:13:11;96427.72;;;9.84;83.77
11268;BME280;49397;47.474;9.416;2023-02-18T05:15:37;96432.88;;;9.80;83.94
11268;BME280;49397;47.474;9.416;2023-02-18T05:18:03;96439.41;;;9.79;83.53
11268;BME280;49397;47.474;9.416;2023-02-18T05:20:28;96438.88;;;9.77;83.57
11268;BME280;49397;47.474;9.416;2023-02-18T05:22:54;96434.59;;;9.66;84.36
11268;BME280;49397;47.474;9.416;2023-02-18T05:25:19;96439.16;;;9.71;84.08
11268;BME280;49397;47.474;9.416;2023-02-18T05:27:45;96442.41;;;9.73;84.35
11268;BME280;49397;47.474;9.416;2023-02-18T05:30:10;96433.53;;;9.67;84.56
11268;BME280;49397;47.474;9.416;2023-02-18T05:32:36;96448.44;;;9.65;84.25
11268;BME280;49397;47.474;9.416;2023-02-18T05:35:01;96440.38;;;9.55;84.22
11268;BME280;49397;47.474;9.416;2023-02-18T05:37:27;96443.41;;;9.43;85.17
11268;BME280;49397;47.474;9.416;2023-02-18T05:39:52;96435.56;;;9.42;84.52
11268;BME280;49397;47.474;9.416;2023-02-18T05:42:18;96438.00;;;9.38;84.97
11268;BME280;49397;47.474;9.416;2023-02-18T05:44:43;96432.63;;;9.33;85.42
11268;BME280;49397;47.474;9.416;2023-02-18T05:47:11;96441.03;;;9.32;85.66
11268;BME280;49397;47.474;9.416;2023-02-18T05:49:38;96441.03;;;9.27;85.85
11268;BME280;49397;47.474;9.416;2023-02-18T05:52:05;96438.63;;;9.20;86.68
11268;BME280;49397;47.474;9.416;2023-02-18T05:54:31;96434.88;;;9.11;86.87
11268;BME280;49397;47.474;9.416;2023-02-18T05:56:57;96431.69;;;9.04;87.47
11268;BME280;49397;47.474;9.416;2023-02-18T05:59:23;96431.13;;;9.07;87.18
11268;BME280;49397;47.474;9.416;2023-02-18T06:01:49;96429.97;;;9.23;85.93
11268;BME280;49397;47.474;9.416;2023-02-18T06:04:15;96430.44;;;9.35;84.97
11268;BME280;49397;47.474;9.416;2023-02-18T06:06:41;96442.03;;;9.46;84.39
11268;BME280;49397;47.474;9.416;2023-02-18T06:09:07;96445.53;;;9.51;84.21
11268;BME280;49397;47.474;9.416;2023-02-18T06:11:33;96438.16;;;9.62;83.38
11268;BME280;49397;47.474;9.416;2023-02-18T06:13:59;96446.84;;;9.59;83.72
11268;BME280;49397;47.474;9.416;2023-02-18T06:16:25;96428.31;;;9.32;84.88
11268;BME280;49397;47.474;9.416;2023-02-18T06:18:51;96439.13;;;9.37;84.31
11268;BME280;49397;47.474;9.416;2023-02-18T06:21:16;96433.97;;;9.36;84.79
11268;BME280;49397;47.474;9.416;2023-02-18T06:23:42;96437.53;;;9.26;85.67
11268;BME280;49397;47.474;9.416;2023-02-18T06:26:08;96438.31;;;9.27;85.83
11268;BME280;49397;47.474;9.416;2023-02-18T06:28:33;96437.28;;;9.17;85.72
11268;BME280;49397;47.474;9.416;2023-02-18T06:30:59;96438.13;;;9.13;86.17
11268;BME280;49397;47.474;9.416;2023-02-18T06:33:24;96443.28;;;9.09;85.88
11268;BME280;49397;47.474;9.416;2023-02-18T06:35:56;96438.16;;;9.03;86.52
11268;BME280;49397;47.474;9.416;2023-02-18T06:38:22;96434.63;;;9.07;86.44
11268;BME280;49397;47.474;9.416;2023-02-18T06:40:47;96432.69;;;9.18;85.91
11268;BME280;49397;47.474;9.416;2023-02-18T06:43:13;96429.19;;;9.12;86.02
11268;BME280;49397;47.474;9.416;2023-02-18T06:45:38;96424.03;;;9.16;86.02
11268;BME280;49397;47.474;9.416;2023-02-18T06:48:04;96436.19;;;9.18;85.68
11268;BME280;49397;47.474;9.416;2023-02-18T06:50:30;96430.22;;;9.21;85.21
11268;BME280;49397;47.474;9.416;2023-02-18T06:52:55;96438.28;;;9.37;84.67
11268;BME280;49397;47.474;9.416;2023-02-18T06:55:21;96434.75;;;9.41;84.25
11268;BME280;49397;47.474;9.416;2023-02-18T06:57:46;96437.09;;;9.58;83.44
11268;BME280;49397;47.474;9.416;2023-02-18T07:00:12;96440.38;;;9.55;83.38
11268;BME280;49397;47.474;9.416;2023-02-18T07:02:37;96440.28;;;9.70;82.74
11268;BME280;49397;47.474;9.416;2023-02-18T07:05:03;96431.88;;;9.71;82.51
11268;BME280;49397;47.474;9.416;2023-02-18T07:07:29;96421.63;;;9.63;82.47
11268;BME280;49397;47.474;9.416;2023-02-18T07:09:54;96428.56;;;9.79;82.03
11268;BME280;49397;47.474;9.416;2023-02-18T07:12:20;96429.59;;;9.83;81.91
11268;BME280;49397;47.474;9.416;2023-02-18T07:14:45;96427.16;;;9.82;82.33
11268;BME280;49397;47.474;9.416;2023-02-18T07:17:11;96427.69;;;9.89;81.53
11268;BME280;49397;47.474;9.416;2023-02-18T07:19:36;96414.13;;;9.89;81.61
11268;BME280;49397;47.474;9.416;2023-02-18T07:22:02;96412.47;;;9.93;81.43
11268;BME280;49397;47.474;9.416;2023-02-18T07:24:27;96420.25;;;10.04;80.90
11268;BME280;49397;47.474;9.416;2023-02-18T07:26:53;96418.84;;;10.12;80.64
11268;BME280;49397;47.474;9.416;2023-02-18T07:29:18;96417.81;;;10.08;80.69
11268;BME280;49397;47.474;9.416;2023-02-18T07:31:44;96422.38;;;10.12;79.98
11268;BME280;49397;47.474;9.416;2023-02-18T07:34:09;96423.38;;;10.21;79.75
11268;BME280;49397;47.474;9.416;2023-02-18T07:36:35;96427.44;;;10.24;80.13
11268;BME280;49397;47.474;9.416;2023-02-18T07:39:00;96415.19;;;10.26;79.42
11268;BME280;49397;47.474;9.416;2023-02-18T07:41:26;96426.16;;;10.45;78.66
11268;BME280;49397;47.474;9.416;2023-02-18T07:43:51;96427.66;;;10.56;78.13
11268;BME280;49397;47.474;9.416;2023-02-18T07:46:17;96421.78;;;10.78;76.65
11268;BME280;49397;47.474;9.416;2023-02-18T07:48:42;96420.72;;;10.97;76.16
11268;BME280;49397;47.474;9.416;2023-02-18T07:51:09;96417.56;;;11.14;75.57
11268;BME280;49397;47.474;9.416;2023-02-18T07:53:36;96417.19;;;11.20;74.87
11268;BME280;49397;47.474;9.416;2023-02-18T07:56:02;96420.28;;;11.32;74.71
11268;BME280;49397;47.474;9.416;2023-02-18T07:58:30;96420.81;;;11.34;74.43
11268;BME280;49397;47.474;9.416;2023-02-18T08:00:57;96422.75;;;11.52;73.62
11268;BME280;49397;47.474;9.416;2023-02-18T08:03:25;96409.88;;;11.63;73.54
11268;BME280;49397;47.474;9.416;2023-02-18T08:05:51;96417.59;;;11.74;72.67
11268;BME280;49397;47.474;9.416;2023-02-18T08:08:28;96417.88;;;11.91;72.47
11268;BME280;49397;47.474;9.416;2023-02-18T08:10:56;96413.94;;;12.16;71.85
11268;BME280;49397;47.474;9.416;2023-02-18T08:13:22;96416.50;;;12.26;71.25
11268;BME280;49397;47.474;9.416;2023-02-18T08:15:48;96417.13;;;12.37;70.73
11268;BME280;49397;47.474;9.416;2023-02-18T08:18:18;96419.78;;;12.42;70.86
11268;BME280;49397;47.474;9.416;2023-02-18T08:20:45;96422.34;;;12.33;70.70
11268;BME280;49397;47.474;9.416;2023-02-18T08:23:12;96420.75;;;12.32;70.92
11268;BME280;49397;47.474;9.416;2023-02-18T08:25:37;96417.34;;;12.40;69.92
11268;BME280;49397;47.474;9.416;2023-02-18T08:28:03;96419.34;;;12.35;70.44
11268;BME280;49397;47.474;9.416;2023-02-18T08:30:29;96427.91;;;12.28;70.94
11268;BME280;49397;47.474;9.416;2023-02-18T08:32:55;96433.16;;;12.38;70.98
11268;BME280;49397;47.474;9.416;2023-02-18T08:35:21;96423.56;;;12.27;71.00
11268;BME280;49397;47.474;9.416;2023-02-18T08:37:47;96425.75;;;12.25;71.60
11268;BME280;49397;47.474;9.416;2023-02-18T08:40:13;96422.97;;;12.30;71.32
11268;BME280;49397;47.474;9.416;2023-02-18T08:42:39;96419.25;;;12.40;71.06
11268;BME280;49397;47.474;9.416;2023-02-18T08:45:05;96416.91;;;12.65;70.56
11268;BME280;49397;47.474;9.416;2023-02-18T08:47:31;96415.69;;;12.71;70.12
11268;BME280;49397;47.474;9.416;2023-02-18T08:49:57;96431.88;;;12.81;68.99
11268;BME280;49397;47.474;9.416;2023-02-18T08:52:23;96426.66;;;12.53;69.15
11268;BME280;49397;47.474;9.416;2023-02-18T08:54:48;96426.34;;;12.41;69.44
11268;BME280;49397;47.474;9.416;2023-02-18T08:57:14;96427.13;;;12.41;69.10
11268;BME280;49397;47.474;9.416;2023-02-18T08:59:39;96421.81;;;12.50;69.37
11268;BME280;49397;47.474;9.416;2023-02-18T09:02:05;96427.97;;;12.55;69.08
11268;BME280;49397;47.474;9.416;2023-02-18T09:04:31;96420.91;;;12.54;69.51
11268;BME280;49397;47.474;9.416;2023-02-18T09:06:57;96416.59;;;12.67;68.65
11268;BME280;49397;47.474;9.416;2023-02-18T09:09:23;96419.13;;;12.63;68.32
11268;BME280;49397;47.474;9.416;2023-02-18T09:11:48;96412.22;;;12.52;68.00
11268;BME280;49397;47.474;9.416;2023-02-18T09:14:14;96414.34;;;12.55;67.98
11268;BME280;49397;47.474;9.416;2023-02-18T09:16:41;96421.72;;;12.55;67.94
11268;BME280;49397;47.474;9.416;2023-02-18T09:19:07;96409.34;;;12.62;68.29
11268;BME280;49397;47.474;9.416;2023-02-18T09:21:32;96399.59;;;12.75;67.97
11268;BME280;49397;47.474;9.416;2023-02-18T09:23:58;96408.56;;;12.75;67.33
11268;BME280;49397;47.474;9.416;2023-02-18T09:26:24;96399.59;;;12.75;67.44
11268;BME280;49397;47.474;9.416;2023-02-18T09:28:52;96406.44;;;12.86;66.82
11268;BME280;49397;47.474;9.416;2023-02-18T09:31:21;96399.94;;;13.14;66.04
11268;BME280;49397;47.474;9.416;2023-02-18T09:33:53;96391.44;;;13.15;65.92
11268;BME280;49397;47.474;9.416;2023-02-18T09:36:19;96404.44;;;13.45;64.82
11268;BME280;49397;47.474;9.416;2023-02-18T09:38:47;96396.25;;;13.59;64.03
11268;BME280;49397;47.474;9.416;2023-02-18T09:41:25;96386.53;;;13.66;63.79
11268;BME280;49397;47.474;9.416;2023-02-18T09:43:55;96381.91;;;13.67;63.78
11268;BME280;49397;47.474;9.416;2023-02-18T09:46:29;96384.22;;;13.74;63.36
11268;BME280;49397;47.474;9.416;2023-02-18T09:48:57;96383.09;;;13.61;63.93
11268;BME280;49397;47.474;9.416;2023-02-18T09:51:25;96385.41;;;13.32;64.27
11268;BME280;49397;47.474;9.416;2023-02-18T09:53:51;96374.16;;;13.47;63.46
11268;BME280;49397;47.474;9.416;2023-02-18T09:56:21;96374.19;;;13.69;64.16
11268;BME280;49397;47.474;9.416;2023-02-18T09:58:48;96367.41;;;14.02;62.29
11268;BME280;49397;47.474;9.416;2023-02-18T10:03:48;96373.47;;;14.35;60.65
11268;BME280;49397;47.474;9.416;2023-02-18T10:06:33;96377.53;;;14.02;62.25
11268;BME280;49397;47.474;9.416;2023-02-18T10:09:07;96375.31;;;14.26;62.11
11268;BME280;49397;47.474;9.416;2023-02-18T10:11:40;96369.88;;;14.26;61.97
11268;BME280;49397;47.474;9.416;2023-02-18T10:14:11;96363.59;;;14.03;62.32
11268;BME280;49397;47.474;9.416;2023-02-18T10:16:38;96360.88;;;14.03;62.88
11268;BME280;49397;47.474;9.416;2023-02-18T10:19:54;96373.13;;;13.92;62.43
11268;BME280;49397;47.474;9.416;2023-02-18T10:21:55;96367.88;;;13.96;62.35
11268;BME280;49397;47.474;9.416;2023-02-18T10:24:32;96368.47;;;14.15;62.11
11268;BME280;49397;47.474;9.416;2023-02-18T10:26:59;96371.16;;;14.50;62.18
11268;BME280;49397;47.474;9.416;2023-02-18T10:29:26;96364.22;;;14.75;58.74
11268;BME280;49397;47.474;9.416;2023-02-18T10:31:58;96371.84;;;14.34;60.72
11268;BME280;49397;47.474;9.416;2023-02-18T10:34:38;96363.84;;;14.37;60.94
11268;BME280;49397;47.474;9.416;2023-02-18T10:37:38;96367.25;;;14.21;62.03
11268;BME280;49397;47.474;9.416;2023-02-18T10:51:14;96361.78;;;14.21;61.12
11268;BME280;49397;47.474;9.416;2023-02-18T10:53:42;96370.34;;;14.50;61.47
11268;BME280;49397;47.474;9.416;2023-02-18T10:59:21;96367.44;;;14.46;61.43
11268;BME280;49397;47.474;9.416;2023-02-18T11:01:56;96359.88;;;14.43;61.60
11268;BME280;49397;47.474;9.416;2023-02-18T11:04:26;96349.22;;;14.11;61.69
11268;BME280;49397;47.474;9.416;2023-02-18T11:06:53;96347.09;;;14.08;62.07
11268;BME280;49397;47.474;9.416;2023-02-18T11:09:40;96339.16;;;14.20;61.71
11268;BME280;49397;47.474;9.416;2023-02-18T11:15:24;96330.22;;;14.06;61.61
11268;BME280;49397;47.474;9.416;2023-02-18T11:17:52;96320.03;;;14.20;61.22
11268;BME280;49397;47.474;9.416;2023-02-18T11:22:50;96313.91;;;14.37;60.81
11268;BME280;49397;47.474;9.416;2023-02-18T11:25:22;96308.84;;;14.52;60.87
11268;BME280;49397;47.474;9.416;2023-02-18T11:27:50;96307.22;;;14.51;60.39
11268;BME280;49397;47.474;9.416;2023-02-18T11:30:19;96307.47;;;14.63;60.36
11268;BME280;49397;47.474;9.416;2023-02-18T11:32:48;96295.00;;;14.79;59.74
11268;BME280;49397;47.474;9.416;2023-02-18T11:35:24;96290.53;;;15.00;58.74
11268;BME280;49397;47.474;9.416;2023-02-18T11:37:50;96290.25;;;14.63;59.38
11268;BME280;49397;47.474;9.416;2023-02-18T11:40:29;96286.81;;;14.49;59.97
11268;BME280;49397;47.474;9.416;2023-02-18T11:43:13;96296.72;;;14.75;59.70
11268;BME280;49397;47.474;9.416;2023-02-18T11:45:40;96283.28;;;14.48;59.32
11268;BME280;49397;47.474;9.416;2023-02-18T11:48:18;96293.81;;;14.33;59.89
11268;BME280;49397;47.474;9.416;2023-02-18T11:50:44;96274.19;;;14.31;60.19
11268;BME280;49397;47.474;9.416;2023-02-18T11:53:34;96274.47;;;14.51;60.63
11268;BME280;49397;47.474;9.416;2023-02-18T11:56:05;96263.66;;;14.38;61.00
11268;BME280;49397;47.474;9.416;2023-02-18T11:58:40;96269.47;;;14.23;60.33
11268;BME280;49397;47.474;9.416;2023-02-18T12:01:26;96262.38;;;14.44;60.30
11268;BME280;49397;47.474;9.416;2023-02-18T12:04:04;96259.66;;;14.44;60.89
11268;BME280;49397;47.474;9.416;2023-02-18T12:06:34;96262.81;;;14.29;60.56
11268;BME280;49397;47.474;9.416;2023-02-18T12:09:08;96258.00;;;14.34;60.19
11268;BME280;49397;47.474;9.416;2023-02-18T12:11:42;96249.47;;;14.27;60.15
11268;BME280;49397;47.474;9.416;2023-02-18T12:14:21;96248.84;;;14.30;60.42
11268;BME280;49397;47.474;9.416;2023-02-18T12:25:23;96228.03;;;14.51;59.19
11268;BME280;49397;47.474;9.416;2023-02-18T12:30:44;96209.22;;;14.41;59.29
11268;BME280;49397;47.474;9.416;2023-02-18T12:57:32;96185.22;;;15.88;55.21
11268;BME280;49397;47.474;9.416;2023-02-18T13:03:00;96177.78;;;15.97;54.58
11268;BME280;49397;47.474;9.416;2023-02-18T13:11:24;96170.09;;;16.28;52.17
11268;BME280;49397;47.474;9.416;2023-02-18T13:14:24;96165.75;;;15.90;53.31
11268;BME280;49397;47.474;9.416;2023-02-18T13:16:55;96153.81;;;15.86;53.15
11268;BME280;49397;47.474;9.416;2023-02-18T13:19:32;96150.47;;;15.80;53.59
11268;BME280;49397;47.474;9.416;2023-02-18T13:22:03;96155.63;;;15.82;54.43
11268;BME280;49397;47.474;9.416;2023-02-18T13:24:42;96139.06;;;15.70;54.17
11268;BME280;49397;47.474;9.416;2023-02-18T13:27:32;96132.63;;;15.74;54.54
11268;BME280;49397;47.474;9.416;2023-02-18T13:40:41;96105.88;;;15.80;54.79
11268;BME280;49397;47.474;9.416;2023-02-18T13:43:29;96122.03;;;15.64;54.90
11268;BME280;49397;47.474;9.416;2023-02-18T13:46:17;96113.06;;;15.47;54.42
11268;BME280;49397;47.474;9.416;2023-02-18T13:48:44;96120.44;;;15.63;54.85
11268;BME280;49397;47.474;9.416;2023-02-18T13:51:13;96112.56;;;15.45;54.77
11268;BME280;49397;47.474;9.416;2023-02-18T13:53:43;96106.31;;;15.44;55.14
11268;BME280;49397;47.474;9.416;2023-02-18T13:56:25;96102.13;;;15.55;54.64
11268;BME280;49397;47.474;9.416;2023-02-18T13:58:54;96108.25;;;15.44;54.92
11268;BME280;49397;47.474;9.416;2023-02-18T14:01:39;96099.38;;;15.47;54.61
11268;BME280;49397;47.474;9.416;2023-02-18T14:04:34;96102.44;;;15.54;54.39
11268;BME280;49397;47.474;9.416;2023-02-18T14:07:24;96099.59;;;15.88;53.34
11268;BME280;49397;47.474;9.416;2023-02-18T14:09:56;96091.03;;;15.98;53.10
11268;BME280;49397;47.474;9.416;2023-02-18T14:12:39;96093.19;;;16.13;52.29
11268;BME280;49397;47.474;9.416;2023-02-18T14:20:30;96100.97;;;16.31;52.70
11268;BME280;49397;47.474;9.416;2023-02-18T14:22:57;96096.59;;;16.39;52.47
11268;BME280;49397;47.474;9.416;2023-02-18T14:25:35;96096.91;;;16.08;51.16
11268;BME280;49397;47.474;9.416;2023-02-18T14:30:54;96100.25;;;15.85;51.62
11268;BME280;49397;47.474;9.416;2023-02-18T14:33:20;96098.78;;;15.87;52.01
11268;BME280;49397;47.474;9.416;2023-02-18T14:36:28;96092.38;;;15.83;52.65
11268;BME280;49397;47.474;9.416;2023-02-18T14:39:13;96096.84;;;15.88;52.31
11268;BME280;49397;47.474;9.416;2023-02-18T14:42:02;96098.72;;;16.04;52.23
11268;BME280;49397;47.474;9.416;2023-02-18T14:49:48;96100.34;;;16.84;50.57
11268;BME280;49397;47.474;9.416;2023-02-18T14:52:57;96098.59;;;16.59;50.99
11268;BME280;49397;47.474;9.416;2023-02-18T14:55:28;96084.03;;;16.67;50.59
11268;BME280;49397;47.474;9.416;2023-02-18T14:58:04;96092.28;;;16.88;50.94
11268;BME280;49397;47.474;9.416;2023-02-18T15:00:34;96089.09;;;16.98;50.06
11268;BME280;49397;47.474;9.416;2023-02-18T15:03:03;96082.16;;;17.21;49.99
11268;BME280;49397;47.474;9.416;2023-02-18T15:05:36;96086.88;;;17.32;50.73
11268;BME280;49397;47.474;9.416;2023-02-18T15:08:05;96084.91;;;17.00;50.54
11268;BME280;49397;47.474;9.416;2023-02-18T15:10:38;96086.69;;;16.76;51.74
11268;BME280;49397;47.474;9.416;2023-02-18T15:13:11;96098.28;;;16.81;52.33
11268;BME280;49397;47.474;9.416;2023-02-18T15:15:38;96088.16;;;17.14;51.91
11268;BME280;49397;47.474;9.416;2023-02-18T15:18:03;96090.84;;;16.61;51.95
11268;BME280;49397;47.474;9.416;2023-02-18T15:20:33;96094.38;;;16.61;52.72
11268;BME280;49397;47.474;9.416;2023-02-18T15:22:59;96096.41;;;16.73;53.31
11268;BME280;49397;47.474;9.416;2023-02-18T15:25:25;96083.09;;;16.34;52.91
11268;BME280;49397;47.474;9.416;2023-02-18T15:27:51;96094.03;;;16.05;53.79